Time;durP1;ratioP1;P1;durP2;ratioP2;P2;SDS_P1;SDS_P2;PMS_P1;PMS_P2;Temp;Humidity;BMP_temperature;BMP_pressure;BME280_temperature;BME280_humidity;BME280_pressure;Samples;Min_cycle;Max_cycle;Signal;HPM_P1;HPM_P2
2023/02/12 00:00:41;;;;;;;93.80;11.95;;;;;;;;;;5100215;28;20130;-69
2023/02/12 00:03:07;;;;;;;100.55;11.57;;;;;;;;;;5091659;28;20040;-69
2023/02/12 00:05:33;;;;;;;92.43;12.07;;;;;;;;;;5097364;28;20495;-68
2023/02/12 00:07:59;;;;;;;124.45;13.50;;;;;;;;;;5079713;28;20177;-69
2023/02/12 00:10:25;;;;;;;126.82;14.43;;;;;;;;;;5095755;28;20043;-69
2023/02/12 00:12:53;;;;;;;117.40;13.15;;;;;;;;;;5093579;28;20054;-69
2023/02/12 00:15:19;;;;;;;98.15;13.35;;;;;;;;;;5094338;28;20047;-68
2023/02/12 00:17:45;;;;;;;111.50;13.88;;;;;;;;;;5092256;28;20113;-69
2023/02/12 00:20:12;;;;;;;105.18;15.25;;;;;;;;;;5073520;28;20048;-68
2023/02/12 00:22:38;;;;;;;119.25;14.88;;;;;;;;;;5092012;28;20043;-69
2023/02/12 00:25:04;;;;;;;98.60;12.75;;;;;;;;;;5088997;28;20044;-69
2023/02/12 00:27:36;;;;;;;78.28;14.30;;;;;;;;;;5092657;28;20514;-69
2023/02/12 00:30:02;;;;;;;57.55;13.05;;;;;;;;;;5094357;28;20062;-68
2023/02/12 00:32:29;;;;;;;64.93;13.23;;;;;;;;;;5078114;28;20040;-69
2023/02/12 00:34:55;;;;;;;45.97;12.70;;;;;;;;;;5095875;28;20063;-69
2023/02/12 00:37:21;;;;;;;61.35;12.25;;;;;;;;;;5097527;28;20040;-69
2023/02/12 00:39:47;;;;;;;57.17;12.32;;;;;;;;;;5076603;28;20735;-69
2023/02/12 00:42:13;;;;;;;102.78;12.30;;;;;;;;;;5096358;28;20122;-68
2023/02/12 00:44:39;;;;;;;88.60;13.43;;;;;;;;;;5096770;28;20425;-68
2023/02/12 00:47:06;;;;;;;87.03;12.68;;;;;;;;;;5096433;28;20036;-69
2023/02/12 00:49:33;;;;;;;77.00;11.65;;;;;;;;;;5079268;28;20044;-69
2023/02/12 00:52:00;;;;;;;68.97;12.00;;;;;;;;;;5093928;28;22048;-69
2023/02/12 00:54:26;;;;;;;61.95;13.00;;;;;;;;;;5097332;28;20040;-69
2023/02/12 00:56:54;;;;;;;72.15;13.10;;;;;;;;;;5097526;28;20047;-68
2023/02/12 00:59:21;;;;;;;80.45;12.93;;;;;;;;;;5081605;28;20500;-68
2023/02/12 01:01:47;;;;;;;61.60;13.40;;;;;;;;;;5098836;28;20083;-68
2023/02/12 01:04:13;;;;;;;78.28;13.90;;;;;;;;;;5095364;28;20046;-69
2023/02/12 01:06:39;;;;;;;64.20;13.88;;;;;;;;;;5100058;28;20562;-69
2023/02/12 01:09:05;;;;;;;40.03;12.70;;;;;;;;;;5097909;28;20419;-69
2023/02/12 01:11:31;;;;;;;42.67;13.63;;;;;;;;;;5076575;28;20437;-68
2023/02/12 01:13:58;;;;;;;71.05;16.05;;;;;;;;;;5099541;28;20340;-68
2023/02/12 01:16:25;;;;;;;51.80;14.98;;;;;;;;;;5099264;28;20122;-69
2023/02/12 01:18:52;;;;;;;96.72;17.55;;;;;;;;;;5101169;28;20052;-68
2023/02/12 01:21:19;;;;;;;75.10;15.05;;;;;;;;;;5092880;28;20044;-69
2023/02/12 01:23:46;;;;;;;62.75;13.60;;;;;;;;;;5097047;28;20044;-68
2023/02/12 01:26:13;;;;;;;103.60;16.52;;;;;;;;;;5095064;28;20036;-68
2023/02/12 01:28:40;;;;;;;96.13;15.13;;;;;;;;;;5096891;28;20040;-69
2023/02/12 01:31:08;;;;;;;95.72;13.85;;;;;;;;;;5095136;28;20035;-69
2023/02/12 01:33:34;;;;;;;63.65;14.05;;;;;;;;;;5079374;28;20093;-69
2023/02/12 01:36:00;;;;;;;74.68;13.38;;;;;;;;;;5095249;28;20040;-68
2023/02/12 01:38:26;;;;;;;83.25;15.20;;;;;;;;;;5082997;28;20349;-69
2023/02/12 01:40:53;;;;;;;100.70;15.05;;;;;;;;;;5097101;28;20159;-69
2023/02/12 01:43:20;;;;;;;66.43;14.20;;;;;;;;;;5095794;28;20126;-69
2023/02/12 01:45:48;;;;;;;112.57;16.52;;;;;;;;;;5080525;28;20151;-69
2023/02/12 01:48:14;;;;;;;102.72;15.50;;;;;;;;;;5094898;28;20052;-69
2023/02/12 01:50:41;;;;;;;211.48;23.00;;;;;;;;;;5096471;28;20062;-68
2023/02/12 01:53:08;;;;;;;80.00;14.40;;;;;;;;;;5092229;28;20044;-69
2023/02/12 01:55:34;;;;;;;234.13;24.75;;;;;;;;;;5076207;28;20055;-68
2023/02/12 01:58:00;;;;;;;166.25;20.90;;;;;;;;;;5071756;28;20127;-69
2023/02/12 02:00:27;;;;;;;102.32;16.10;;;;;;;;;;5098750;28;20478;-69
2023/02/12 02:02:55;;;;;;;111.68;16.45;;;;;;;;;;5093927;28;20046;-68
2023/02/12 02:05:26;;;;;;;92.45;16.77;;;;;;;;;;5096621;28;20487;-69
2023/02/12 02:07:53;;;;;;;93.40;16.15;;;;;;;;;;5094475;28;20139;-68
2023/02/12 02:10:19;;;;;;;111.05;18.88;;;;;;;;;;5098023;28;20116;-69
2023/02/12 02:15:30;;;;;;;98.13;16.10;;;;;;;;;;5075674;28;20463;-69
2023/02/12 02:18:08;;;;;;;110.00;16.60;;;;;;;;;;5094988;28;20093;-69
2023/02/12 02:20:41;;;;;;;98.22;15.90;;;;;;;;;;5092516;28;20044;-69
2023/02/12 02:23:13;;;;;;;121.72;17.05;;;;;;;;;;5095679;28;20055;-68
2023/02/12 02:25:52;;;;;;;110.57;17.05;;;;;;;;;;5094965;28;20039;-69
2023/02/12 02:28:37;;;;;;;85.15;18.00;;;;;;;;;;5093135;28;20039;-68
2023/02/12 02:31:06;;;;;;;98.10;16.75;;;;;;;;;;5090773;28;20044;-69
2023/02/12 02:33:45;;;;;;;120.32;18.02;;;;;;;;;;5094575;28;20074;-68
2023/02/12 02:36:15;;;;;;;86.40;17.75;;;;;;;;;;5098214;28;20096;-69
2023/02/12 02:38:42;;;;;;;94.60;17.85;;;;;;;;;;5071821;28;20119;-69
2023/02/12 02:41:15;;;;;;;102.13;17.35;;;;;;;;;;5093876;28;20082;-69
2023/02/12 02:43:46;;;;;;;108.50;16.75;;;;;;;;;;5072585;28;20055;-69
2023/02/12 02:46:15;;;;;;;121.88;20.40;;;;;;;;;;5093047;28;20044;-68
2023/02/12 02:48:43;;;;;;;213.73;22.00;;;;;;;;;;5075812;28;20377;-68
2023/02/12 02:51:13;;;;;;;162.70;21.25;;;;;;;;;;5094260;28;20046;-69
2023/02/12 02:53:43;;;;;;;172.70;24.10;;;;;;;;;;5088586;28;20079;-69
2023/02/12 02:56:12;;;;;;;226.23;27.02;;;;;;;;;;5055117;28;20040;-69
2023/02/12 02:58:41;;;;;;;130.77;21.58;;;;;;;;;;5093629;28;20046;-69
2023/02/12 03:01:10;;;;;;;129.00;21.77;;;;;;;;;;5095803;28;20042;-69
2023/02/12 03:03:47;;;;;;;139.48;21.20;;;;;;;;;;5091078;28;20047;-69
2023/02/12 03:06:19;;;;;;;210.57;26.48;;;;;;;;;;5090740;28;20105;-69
2023/02/12 03:08:48;;;;;;;122.18;20.80;;;;;;;;;;5091102;28;20075;-69
2023/02/12 03:11:19;;;;;;;122.80;20.90;;;;;;;;;;5096958;28;20056;-69
2023/02/12 03:13:48;;;;;;;129.98;21.30;;;;;;;;;;5091143;28;20047;-69
2023/02/12 03:16:17;;;;;;;160.80;22.65;;;;;;;;;;5074557;28;20146;-69
2023/02/12 03:18:47;;;;;;;120.20;20.90;;;;;;;;;;5094858;28;20043;-69
2023/02/12 03:21:16;;;;;;;116.00;21.00;;;;;;;;;;5093063;28;20047;-69
2023/02/12 03:23:46;;;;;;;110.57;21.13;;;;;;;;;;5094682;28;20111;-69
2023/02/12 03:26:17;;;;;;;152.43;22.50;;;;;;;;;;5097943;28;20044;-69
2023/02/12 03:28:43;;;;;;;155.38;22.83;;;;;;;;;;5094250;28;20565;-69
2023/02/12 03:31:10;;;;;;;150.32;23.30;;;;;;;;;;5089337;28;20058;-69
2023/02/12 03:33:44;;;;;;;120.18;20.42;;;;;;;;;;5095551;28;20039;-69
2023/02/12 03:36:18;;;;;;;121.65;20.15;;;;;;;;;;5077953;28;20077;-69
2023/02/12 03:38:46;;;;;;;145.13;21.65;;;;;;;;;;5092673;28;20052;-69
2023/02/12 03:41:16;;;;;;;131.65;22.63;;;;;;;;;;5094360;28;20054;-68
2023/02/12 03:43:49;;;;;;;112.43;21.02;;;;;;;;;;5093547;28;20052;-69
2023/02/12 03:46:18;;;;;;;136.27;21.10;;;;;;;;;;5095356;28;20031;-69
2023/02/12 03:48:47;;;;;;;131.35;21.17;;;;;;;;;;5096408;28;20120;-69
2023/02/12 03:51:21;;;;;;;178.85;22.90;;;;;;;;;;5096105;28;20487;-69
2023/02/12 03:53:47;;;;;;;155.10;21.23;;;;;;;;;;5091522;28;20046;-69
2023/02/12 03:56:17;;;;;;;190.93;21.63;;;;;;;;;;5076294;28;20044;-69
2023/02/12 03:58:44;;;;;;;155.90;21.77;;;;;;;;;;5093027;28;20031;-69
2023/02/12 04:01:11;;;;;;;163.48;21.70;;;;;;;;;;5093418;28;20035;-68
2023/02/12 04:03:37;;;;;;;319.55;30.17;;;;;;;;;;5095086;28;20131;-69
2023/02/12 04:06:03;;;;;;;176.35;21.25;;;;;;;;;;5097495;28;20036;-69
2023/02/12 04:08:30;;;;;;;358.35;33.45;;;;;;;;;;5094077;28;20059;-68
2023/02/12 04:10:57;;;;;;;431.67;35.67;;;;;;;;;;5094798;28;20059;-68
2023/02/12 04:13:28;;;;;;;250.18;27.00;;;;;;;;;;5094890;28;20052;-69
2023/02/12 04:16:01;;;;;;;350.65;31.75;;;;;;;;;;5075676;28;20109;-69
2023/02/12 04:18:33;;;;;;;271.35;27.05;;;;;;;;;;5095680;28;20040;-69
2023/02/12 04:20:59;;;;;;;373.70;32.20;;;;;;;;;;5095739;28;20047;-68
2023/02/12 04:23:34;;;;;;;217.73;24.92;;;;;;;;;;5098990;28;20087;-69
2023/02/12 04:26:09;;;;;;;361.98;31.63;;;;;;;;;;5077307;28;20085;-68
2023/02/12 04:28:41;;;;;;;171.02;20.52;;;;;;;;;;5080068;28;20518;-68
2023/02/12 04:31:23;;;;;;;154.27;21.38;;;;;;;;;;5096989;28;20060;-69
2023/02/12 04:33:57;;;;;;;166.02;20.80;;;;;;;;;;5100016;28;20055;-69
2023/02/12 04:36:26;;;;;;;205.82;21.45;;;;;;;;;;5080490;28;20086;-69
2023/02/12 04:38:55;;;;;;;484.92;38.05;;;;;;;;;;5094582;28;20135;-69
2023/02/12 04:41:21;;;;;;;168.02;21.10;;;;;;;;;;5099292;28;20513;-69
2023/02/12 04:43:47;;;;;;;201.63;22.27;;;;;;;;;;5098115;28;20051;-69
2023/02/12 04:46:14;;;;;;;264.75;28.17;;;;;;;;;;5097091;28;20051;-69
2023/02/12 04:48:49;;;;;;;166.18;21.27;;;;;;;;;;5081536;28;20126;-68
2023/02/12 04:51:16;;;;;;;233.07;22.85;;;;;;;;;;5100392;28;20206;-69
2023/02/12 04:53:42;;;;;;;193.07;22.48;;;;;;;;;;5098269;28;20040;-69
2023/02/12 04:56:10;;;;;;;261.70;25.42;;;;;;;;;;5095260;28;20052;-68
2023/02/12 04:58:36;;;;;;;221.48;23.73;;;;;;;;;;5096705;28;20024;-68
2023/02/12 05:01:03;;;;;;;188.50;22.73;;;;;;;;;;5094473;28;20152;-69
2023/02/12 05:03:29;;;;;;;204.00;21.48;;;;;;;;;;5098366;28;20418;-69
2023/02/12 05:05:55;;;;;;;230.52;22.10;;;;;;;;;;5100194;28;20074;-69
2023/02/12 05:08:21;;;;;;;207.05;21.25;;;;;;;;;;5097432;28;20051;-69
2023/02/12 05:10:47;;;;;;;173.85;21.92;;;;;;;;;;5098051;28;20032;-69
2023/02/12 05:13:14;;;;;;;227.25;22.15;;;;;;;;;;5096189;28;20450;-69
2023/02/12 05:15:40;;;;;;;188.68;20.20;;;;;;;;;;5097004;28;20063;-69
2023/02/12 05:18:06;;;;;;;195.45;21.02;;;;;;;;;;5098263;28;20039;-69
2023/02/12 05:20:32;;;;;;;219.15;20.70;;;;;;;;;;5101514;28;20036;-68
2023/02/12 05:22:58;;;;;;;191.85;21.45;;;;;;;;;;5099733;28;20049;-69
2023/02/12 05:25:24;;;;;;;162.70;20.90;;;;;;;;;;5096237;28;20043;-69
2023/02/12 05:27:50;;;;;;;187.88;20.67;;;;;;;;;;5090998;28;20040;-68
2023/02/12 05:30:17;;;;;;;202.00;21.65;;;;;;;;;;5093716;28;20047;-69
2023/02/12 05:32:43;;;;;;;210.18;19.60;;;;;;;;;;5095010;28;20082;-68
2023/02/12 05:35:09;;;;;;;172.52;19.52;;;;;;;;;;5081468;28;20093;-69
2023/02/12 05:37:36;;;;;;;202.55;19.65;;;;;;;;;;5074449;28;20044;-69
2023/02/12 05:40:04;;;;;;;217.40;20.70;;;;;;;;;;5096192;28;20486;-69
2023/02/12 05:42:30;;;;;;;179.27;19.10;;;;;;;;;;5097878;28;20043;-69
2023/02/12 05:44:56;;;;;;;186.27;18.80;;;;;;;;;;5092632;28;20089;-69
2023/02/12 05:47:22;;;;;;;171.85;17.80;;;;;;;;;;5093590;28;20059;-69
2023/02/12 05:49:48;;;;;;;164.48;16.58;;;;;;;;;;5095493;28;20048;-69
2023/02/12 05:52:14;;;;;;;126.47;14.48;;;;;;;;;;5094700;28;20403;-69
2023/02/12 05:54:41;;;;;;;125.97;13.18;;;;;;;;;;5078843;28;20100;-69
2023/02/12 05:57:07;;;;;;;156.35;14.63;;;;;;;;;;5095993;28;20556;-69
2023/02/12 05:59:33;;;;;;;147.82;17.73;;;;;;;;;;5077952;28;20051;-69
2023/02/12 06:01:59;;;;;;;153.65;16.52;;;;;;;;;;5096524;28;20051;-69
2023/02/12 06:04:27;;;;;;;122.13;14.63;;;;;;;;;;5094819;28;20054;-69
2023/02/12 06:06:54;;;;;;;128.18;16.48;;;;;;;;;;5099127;28;20161;-69
2023/02/12 06:09:21;;;;;;;108.50;15.07;;;;;;;;;;5099696;28;20097;-69
2023/02/12 06:11:47;;;;;;;115.18;14.38;;;;;;;;;;5076788;28;20617;-69
2023/02/12 06:14:15;;;;;;;106.13;14.35;;;;;;;;;;5096611;28;20036;-68
2023/02/12 06:16:43;;;;;;;139.55;15.90;;;;;;;;;;5073996;28;20043;-68
2023/02/12 06:19:09;;;;;;;208.50;16.98;;;;;;;;;;5097038;28;20070;-68
2023/02/12 06:21:35;;;;;;;172.88;17.60;;;;;;;;;;5094528;28;20507;-69
2023/02/12 06:24:02;;;;;;;148.10;18.67;;;;;;;;;;5098412;28;20511;-69
2023/02/12 06:26:28;;;;;;;127.28;18.50;;;;;;;;;;5081805;28;20467;-69
2023/02/12 06:28:54;;;;;;;163.60;18.77;;;;;;;;;;5076722;28;20124;-69
2023/02/12 06:31:29;;;;;;;125.07;18.00;;;;;;;;;;5098176;28;20105;-69
2023/02/12 06:33:57;;;;;;;124.45;17.15;;;;;;;;;;5078509;28;20095;-69
2023/02/12 06:36:23;;;;;;;76.50;17.15;;;;;;;;;;5094957;28;20039;-69
2023/02/12 06:38:50;;;;;;;82.88;16.50;;;;;;;;;;5078628;28;20044;-69
2023/02/12 06:41:16;;;;;;;53.00;16.00;;;;;;;;;;5097153;28;20047;-69
2023/02/12 06:43:43;;;;;;;82.85;18.92;;;;;;;;;;5069906;28;20051;-68
2023/02/12 06:46:09;;;;;;;78.47;19.75;;;;;;;;;;5096068;28;20044;-68
2023/02/12 06:48:36;;;;;;;84.40;17.67;;;;;;;;;;5097213;28;20046;-69
2023/02/12 06:51:04;;;;;;;62.70;17.58;;;;;;;;;;5094352;28;20456;-69
2023/02/12 06:53:30;;;;;;;71.25;18.90;;;;;;;;;;5093421;28;20899;-69
2023/02/12 06:55:56;;;;;;;64.03;19.25;;;;;;;;;;5094611;28;20043;-69
2023/02/12 06:58:22;;;;;;;65.70;21.35;;;;;;;;;;5077785;28;20051;-69
2023/02/12 07:00:48;;;;;;;60.35;19.70;;;;;;;;;;5079140;28;20067;-69
2023/02/12 07:03:15;;;;;;;53.25;18.17;;;;;;;;;;5091293;28;20073;-69
2023/02/12 07:05:41;;;;;;;53.63;18.00;;;;;;;;;;5092512;28;20533;-68
2023/02/12 07:08:07;;;;;;;57.58;18.70;;;;;;;;;;5077321;28;20761;-68
2023/02/12 07:10:34;;;;;;;58.13;19.20;;;;;;;;;;5096947;28;20528;-69
2023/02/12 07:13:00;;;;;;;60.75;22.45;;;;;;;;;;5097461;28;20455;-68
2023/02/12 07:15:26;;;;;;;65.47;20.08;;;;;;;;;;5093317;28;20383;-69
2023/02/12 07:17:52;;;;;;;71.50;19.50;;;;;;;;;;5096345;28;20126;-69
2023/02/12 07:20:18;;;;;;;54.05;19.13;;;;;;;;;;5098291;28;20142;-68
2023/02/12 07:22:44;;;;;;;53.55;17.85;;;;;;;;;;5092217;28;20048;-68
2023/02/12 07:25:11;;;;;;;63.33;19.30;;;;;;;;;;5089581;28;20039;-69
2023/02/12 07:27:37;;;;;;;58.70;18.45;;;;;;;;;;5090248;28;20043;-69
2023/02/12 07:30:05;;;;;;;71.25;20.08;;;;;;;;;;5098051;28;20085;-69
2023/02/12 07:32:32;;;;;;;58.20;19.48;;;;;;;;;;5092454;28;20115;-68
2023/02/12 07:34:58;;;;;;;50.85;18.33;;;;;;;;;;5094969;28;20173;-69
2023/02/12 07:37:24;;;;;;;56.70;19.13;;;;;;;;;;5096279;28;20072;-68
2023/02/12 07:39:51;;;;;;;57.85;20.88;;;;;;;;;;5094375;28;20123;-68
2023/02/12 07:42:17;;;;;;;62.67;20.48;;;;;;;;;;5076690;28;20471;-68
2023/02/12 07:44:45;;;;;;;64.35;20.20;;;;;;;;;;5094053;28;20460;-69
2023/02/12 07:47:11;;;;;;;78.80;21.75;;;;;;;;;;5076464;28;20104;-68
2023/02/12 07:49:37;;;;;;;64.28;24.45;;;;;;;;;;5091961;28;20123;-69
2023/02/12 07:52:03;;;;;;;59.63;24.05;;;;;;;;;;5096775;28;20040;-68
2023/02/12 07:54:29;;;;;;;65.90;21.17;;;;;;;;;;5093713;28;20044;-69
2023/02/12 07:56:55;;;;;;;70.28;21.98;;;;;;;;;;5094795;28;20036;-69
2023/02/12 07:59:21;;;;;;;66.68;22.15;;;;;;;;;;5072092;28;20071;-69
2023/02/12 08:01:49;;;;;;;70.45;22.23;;;;;;;;;;5100403;28;20096;-69
2023/02/12 08:04:16;;;;;;;67.53;23.23;;;;;;;;;;5073068;28;20131;-68
2023/02/12 08:06:44;;;;;;;65.70;22.40;;;;;;;;;;5097017;28;20070;-69
2023/02/12 08:09:11;;;;;;;68.57;23.10;;;;;;;;;;5092754;28;20101;-69
2023/02/12 08:11:39;;;;;;;72.70;24.15;;;;;;;;;;5095015;28;20488;-69
2023/02/12 08:14:05;;;;;;;70.05;24.02;;;;;;;;;;5096075;28;20097;-69
2023/02/12 08:16:35;;;;;;;73.28;24.05;;;;;;;;;;5096632;28;20087;-69
2023/02/12 08:19:01;;;;;;;70.78;23.23;;;;;;;;;;5096345;28;20032;-69
2023/02/12 08:21:27;;;;;;;70.78;24.02;;;;;;;;;;5076884;28;20087;-69
2023/02/12 08:23:55;;;;;;;78.28;26.50;;;;;;;;;;5080678;28;20044;-68
2023/02/12 08:26:22;;;;;;;79.88;27.17;;;;;;;;;;5099820;28;20403;-70
2023/02/12 08:28:49;;;;;;;76.22;24.98;;;;;;;;;;5091665;28;20425;-70
2023/02/12 08:31:18;;;;;;;78.95;25.90;;;;;;;;;;5068830;28;20086;-69
2023/02/12 08:33:46;;;;;;;98.72;26.92;;;;;;;;;;5090674;28;20051;-68
2023/02/12 08:36:14;;;;;;;86.18;25.40;;;;;;;;;;5093825;28;20031;-68
2023/02/12 08:38:41;;;;;;;79.63;26.83;;;;;;;;;;5094631;28;21434;-69
2023/02/12 08:41:08;;;;;;;85.88;27.83;;;;;;;;;;5074084;28;20098;-77
2023/02/12 08:43:34;;;;;;;78.65;26.42;;;;;;;;;;5081405;28;20036;-69
2023/02/12 08:46:05;;;;;;;84.05;27.48;;;;;;;;;;5077567;28;20047;-69
2023/02/12 08:48:31;;;;;;;94.70;29.48;;;;;;;;;;5082841;28;20028;-69
2023/02/12 08:51:11;;;;;;;89.43;29.52;;;;;;;;;;5082451;28;20059;-70
2023/02/12 08:53:38;;;;;;;92.38;30.17;;;;;;;;;;5077998;28;20048;-70
2023/02/12 08:56:04;;;;;;;101.82;30.48;;;;;;;;;;5081279;28;20127;-70
2023/02/12 08:58:31;;;;;;;99.47;30.70;;;;;;;;;;5080246;28;20088;-70
2023/02/12 09:00:57;;;;;;;101.68;31.48;;;;;;;;;;5078671;28;20384;-70
2023/02/12 09:03:23;;;;;;;98.22;30.00;;;;;;;;;;5084307;28;20040;-69
2023/02/12 09:05:49;;;;;;;102.85;33.20;;;;;;;;;;5074222;28;20052;-69
2023/02/12 09:08:15;;;;;;;95.85;30.48;;;;;;;;;;5077240;28;20069;-69
2023/02/12 09:10:42;;;;;;;102.50;31.27;;;;;;;;;;5080995;28;20032;-69
2023/02/12 09:13:09;;;;;;;114.65;32.80;;;;;;;;;;5082957;28;20048;-69
2023/02/12 09:15:37;;;;;;;117.43;35.55;;;;;;;;;;5076612;28;20047;-69
2023/02/12 09:18:04;;;;;;;105.10;33.45;;;;;;;;;;5084678;28;20043;-69
2023/02/12 09:20:30;;;;;;;104.20;34.08;;;;;;;;;;5082113;28;20469;-70
2023/02/12 09:22:58;;;;;;;113.22;35.03;;;;;;;;;;5076054;28;20151;-70
2023/02/12 09:25:24;;;;;;;105.93;34.97;;;;;;;;;;5080564;28;20423;-69
2023/02/12 09:27:50;;;;;;;100.68;35.10;;;;;;;;;;5081412;28;20480;-69
2023/02/12 09:30:16;;;;;;;102.68;34.83;;;;;;;;;;5082993;28;20520;-70
2023/02/12 09:32:42;;;;;;;95.68;34.33;;;;;;;;;;5084314;28;20040;-70
2023/02/12 09:35:11;;;;;;;101.72;33.92;;;;;;;;;;5076129;28;20048;-70
2023/02/12 09:37:39;;;;;;;93.65;34.40;;;;;;;;;;5077374;28;20426;-70
2023/02/12 09:40:06;;;;;;;94.45;34.58;;;;;;;;;;5077975;28;20129;-70
2023/02/12 09:42:41;;;;;;;82.22;31.52;;;;;;;;;;5080346;28;20117;-69
2023/02/12 09:45:11;;;;;;;81.15;31.20;;;;;;;;;;5098830;28;20080;-69
2023/02/12 09:47:50;;;;;;;87.13;32.35;;;;;;;;;;5098682;28;20035;-69
2023/02/12 09:50:24;;;;;;;78.13;30.08;;;;;;;;;;5096539;28;20399;-70
2023/02/12 09:52:50;;;;;;;;;;;;;;;;;;5078437;28;20055;-70
2023/02/12 09:55:17;;;;;;;62.35;26.17;;;;;;;;;;5059748;28;20260;-70
2023/02/12 09:57:44;;;;;;;64.35;26.70;;;;;;;;;;5097283;28;20412;-70
2023/02/12 10:00:14;;;;;;;66.00;27.52;;;;;;;;;;5102759;28;20244;-70
2023/02/12 10:02:40;;;;;;;66.30;28.83;;;;;;;;;;5099692;28;20043;-70
2023/02/12 10:05:17;;;;;;;54.60;24.00;;;;;;;;;;5103097;28;20112;-70
2023/02/12 10:07:43;;;;;;;60.75;25.08;;;;;;;;;;5094284;28;20464;-70
2023/02/12 10:10:19;;;;;;;48.15;22.85;;;;;;;;;;5097584;28;20036;-70
2023/02/12 10:12:49;;;;;;;37.88;18.60;;;;;;;;;;5100290;28;20112;-69
2023/02/12 10:15:26;;;;;;;38.28;19.73;;;;;;;;;;5099441;28;20055;-70
2023/02/12 10:17:52;;;;;;;39.42;18.60;;;;;;;;;;5101934;28;20047;-70
2023/02/12 10:20:18;;;;;;;36.88;18.13;;;;;;;;;;5099459;28;20048;-69
2023/02/12 10:23:02;;;;;;;38.17;19.25;;;;;;;;;;5100559;28;20035;-69
2023/02/12 10:25:36;;;;;;;41.95;19.98;;;;;;;;;;5096896;28;20126;-69
2023/02/12 10:28:08;;;;;;;38.13;19.60;;;;;;;;;;5098072;28;20177;-69
2023/02/12 10:30:41;;;;;;;39.92;20.40;;;;;;;;;;5095435;28;20109;-70
2023/02/12 10:33:11;;;;;;;33.92;18.05;;;;;;;;;;5076613;28;20050;-70
2023/02/12 10:35:42;;;;;;;43.97;21.00;;;;;;;;;;5103350;28;20051;-70
2023/02/12 10:38:14;;;;;;;40.30;20.27;;;;;;;;;;5095823;28;20123;-70
2023/02/12 10:40:43;;;;;;;36.95;19.40;;;;;;;;;;5094577;28;20052;-70
2023/02/12 10:43:10;;;;;;;43.88;19.92;;;;;;;;;;5096756;28;20044;-69
2023/02/12 10:45:40;;;;;;;32.35;16.80;;;;;;;;;;5101320;28;20072;-70
2023/02/12 10:48:07;;;;;;;30.83;16.10;;;;;;;;;;5095634;28;20115;-70
2023/02/12 10:50:41;;;;;;;27.55;15.73;;;;;;;;;;5101583;28;20094;-70
2023/02/12 10:53:07;;;;;;;;;;;;;;;;;;5095886;28;20040;-70
2023/02/12 10:55:34;;;;;;;25.52;14.38;;;;;;;;;;5095467;28;19934;-70
2023/02/12 10:58:02;;;;;;;27.73;15.38;;;;;;;;;;5067299;28;20170;-69
2023/02/12 11:00:35;;;;;;;28.60;15.07;;;;;;;;;;5094120;28;20040;-70
2023/02/12 11:03:04;;;;;;;25.80;14.95;;;;;;;;;;5095442;28;20111;-71
2023/02/12 11:05:31;;;;;;;27.08;16.33;;;;;;;;;;5078164;28;20416;-70
2023/02/12 11:07:57;;;;;;;29.75;16.17;;;;;;;;;;5094658;28;20040;-69
2023/02/12 11:10:31;;;;;;;31.15;17.92;;;;;;;;;;5075095;28;20048;-70
2023/02/12 11:12:58;;;;;;;32.63;17.02;;;;;;;;;;5094573;28;20051;-70
2023/02/12 11:15:25;;;;;;;29.50;15.85;;;;;;;;;;5098697;28;20039;-70
2023/02/12 11:18:00;;;;;;;26.15;15.27;;;;;;;;;;5079220;28;20075;-70
2023/02/12 11:20:28;;;;;;;26.38;14.98;;;;;;;;;;5093636;28;20451;-70
2023/02/12 11:22:57;;;;;;;23.05;14.77;;;;;;;;;;5093344;28;20040;-70
2023/02/12 11:25:25;;;;;;;27.63;15.40;;;;;;;;;;5091823;28;20036;-70
2023/02/12 11:28:00;;;;;;;25.25;14.77;;;;;;;;;;5094641;28;20141;-70
2023/02/12 11:30:26;;;;;;;26.23;16.02;;;;;;;;;;5093157;28;20444;-70
2023/02/12 11:32:53;;;;;;;23.30;15.40;;;;;;;;;;5097904;28;20071;-70
2023/02/12 11:35:32;;;;;;;29.15;16.70;;;;;;;;;;5095290;28;20047;-70
2023/02/12 11:37:59;;;;;;;26.25;15.23;;;;;;;;;;5078362;28;20088;-70
2023/02/12 11:40:27;;;;;;;25.25;16.35;;;;;;;;;;5076563;28;20451;-70
2023/02/12 11:42:55;;;;;;;24.63;16.85;;;;;;;;;;5078081;28;20039;-69
2023/02/12 11:45:26;;;;;;;29.40;18.13;;;;;;;;;;5074446;28;20044;-69
2023/02/12 11:47:52;;;;;;;27.67;17.17;;;;;;;;;;5089231;28;20066;-69
2023/02/12 11:50:23;;;;;;;27.92;16.80;;;;;;;;;;5094029;28;20040;-70
2023/02/12 11:52:51;;;;;;;33.28;18.83;;;;;;;;;;5073076;28;20116;-70
2023/02/12 11:55:21;;;;;;;30.80;17.85;;;;;;;;;;5074746;28;20044;-70
2023/02/12 11:57:49;;;;;;;35.58;18.85;;;;;;;;;;5089936;28;20435;-70
2023/02/12 12:00:19;;;;;;;29.17;17.58;;;;;;;;;;5092077;28;20040;-70
2023/02/12 12:02:48;;;;;;;30.25;17.88;;;;;;;;;;5076877;28;20076;-70
2023/02/12 12:05:16;;;;;;;28.67;18.20;;;;;;;;;;5100328;28;20059;-70
2023/02/12 12:07:44;;;;;;;28.92;17.80;;;;;;;;;;5079846;28;20052;-70
2023/02/12 12:10:24;;;;;;;28.13;16.92;;;;;;;;;;5090679;28;20343;-70
2023/02/12 12:12:54;;;;;;;27.17;17.42;;;;;;;;;;5095434;28;20043;-71
2023/02/12 12:21:13;;;;;;;24.90;14.98;;;;;;;;;;5077617;28;21075;-70
2023/02/12 12:23:43;;;;;;;23.13;15.65;;;;;;;;;;5090578;28;20379;-71
2023/02/12 12:26:12;;;;;;;27.75;17.90;;;;;;;;;;5074740;28;20044;-71
2023/02/12 12:28:45;;;;;;;26.17;17.33;;;;;;;;;;5100166;28;20047;-71
2023/02/12 12:31:21;;;;;;;25.60;16.67;;;;;;;;;;5075761;28;20371;-71
2023/02/12 12:33:51;;;;;;;25.33;16.65;;;;;;;;;;5092822;28;20031;-70
2023/02/12 12:36:35;;;;;;;26.75;16.90;;;;;;;;;;5089096;28;20507;-70
2023/02/12 12:39:02;;;;;;;23.02;16.13;;;;;;;;;;5099614;28;20218;-70
2023/02/12 12:41:46;;;;;;;23.73;15.38;;;;;;;;;;5096470;28;20056;-70
2023/02/12 12:44:17;;;;;;;23.42;15.43;;;;;;;;;;5095476;28;20390;-70
2023/02/12 12:46:48;;;;;;;24.88;14.35;;;;;;;;;;5078164;28;20135;-70
2023/02/12 12:49:14;;;;;;;21.75;14.80;;;;;;;;;;5075645;28;20028;-71
2023/02/12 12:51:40;;;;;;;24.67;15.10;;;;;;;;;;5077729;28;20154;-71
2023/02/12 12:54:25;;;;;;;24.38;14.85;;;;;;;;;;5085200;28;20092;-70
2023/02/12 12:56:57;;;;;;;24.00;15.13;;;;;;;;;;5074663;28;20473;-68
2023/02/12 12:59:33;;;;;;;23.88;15.00;;;;;;;;;;5103787;28;20055;-68
2023/02/12 13:02:02;;;;;;;26.33;16.50;;;;;;;;;;5100169;28;20154;-68
2023/02/12 13:04:32;;;;;;;26.40;16.23;;;;;;;;;;5096932;28;20487;-68
2023/02/12 13:07:09;;;;;;;24.60;15.05;;;;;;;;;;5099803;28;20036;-67
2023/02/12 13:09:42;;;;;;;24.55;15.10;;;;;;;;;;5099974;28;20055;-69
2023/02/12 13:12:15;;;;;;;24.88;14.82;;;;;;;;;;5099286;28;20062;-69
2023/02/12 13:14:42;;;;;;;21.75;14.30;;;;;;;;;;5102064;28;20089;-69
2023/02/12 13:17:27;;;;;;;18.60;12.77;;;;;;;;;;5089386;28;20080;-69
2023/02/12 13:19:59;;;;;;;20.92;14.25;;;;;;;;;;5101262;28;20080;-69
2023/02/12 13:22:34;;;;;;;25.67;14.15;;;;;;;;;;5103998;28;20044;-69
2023/02/12 13:25:18;;;;;;;21.58;13.38;;;;;;;;;;5101935;28;20039;-69
2023/02/12 13:27:45;;;;;;;22.92;14.55;;;;;;;;;;5103053;28;20048;-69
2023/02/12 13:30:14;;;;;;;26.45;15.63;;;;;;;;;;5101432;28;20032;-69
2023/02/12 13:32:44;;;;;;;31.08;17.92;;;;;;;;;;5098323;28;20058;-68
2023/02/12 13:35:15;;;;;;;28.98;17.38;;;;;;;;;;5072371;28;20086;-68
2023/02/12 13:37:44;;;;;;;29.85;18.05;;;;;;;;;;5101143;28;20487;-68
2023/02/12 13:40:14;;;;;;;33.17;18.25;;;;;;;;;;5080051;28;20177;-70
2023/02/12 13:42:53;;;;;;;31.15;18.15;;;;;;;;;;5095833;28;20050;-69
2023/02/12 13:45:26;;;;;;;37.28;19.33;;;;;;;;;;5082171;28;20137;-69
2023/02/12 13:48:03;;;;;;;28.73;18.17;;;;;;;;;;5097543;28;20044;-69
2023/02/12 13:50:30;;;;;;;28.85;18.40;;;;;;;;;;5076596;28;20039;-69
2023/02/12 13:52:59;;;;;;;30.35;17.35;;;;;;;;;;5097061;28;20055;-69
2023/02/12 13:55:35;;;;;;;28.90;18.10;;;;;;;;;;5092767;28;20523;-69
2023/02/12 13:58:20;;;;;;;36.10;18.95;;;;;;;;;;5096786;28;20052;-69
2023/02/12 14:00:47;;;;;;;34.10;19.50;;;;;;;;;;5093429;28;20051;-69
2023/02/12 14:03:13;;;;;;;30.88;19.45;;;;;;;;;;5093992;28;20081;-69
2023/02/12 14:05:40;;;;;;;34.83;20.50;;;;;;;;;;5076831;28;20043;-69
2023/02/12 14:08:07;;;;;;;34.60;20.95;;;;;;;;;;5073809;28;20044;-69
2023/02/12 14:10:35;;;;;;;30.30;20.13;;;;;;;;;;5090126;28;20415;-69
2023/02/12 14:13:08;;;;;;;33.20;20.63;;;;;;;;;;5099730;28;20042;-69
2023/02/12 14:15:36;;;;;;;34.58;21.15;;;;;;;;;;5097453;28;20487;-69
2023/02/12 14:18:02;;;;;;;32.55;19.70;;;;;;;;;;5100634;28;20040;-69
2023/02/12 14:20:30;;;;;;;35.75;19.67;;;;;;;;;;5083063;28;20681;-68
2023/02/12 14:22:58;;;;;;;29.75;20.17;;;;;;;;;;5097473;28;20050;-69
2023/02/12 14:25:24;;;;;;;30.00;19.33;;;;;;;;;;5078593;28;20096;-69
2023/02/12 14:27:52;;;;;;;32.47;19.45;;;;;;;;;;5095712;28;20040;-73
2023/02/12 14:30:25;;;;;;;30.90;19.50;;;;;;;;;;5097577;28;20063;-69